| time (UTC) | temp C | wind direction | speed KPH | gust KPH | rain 1hr cm | rain 24hr cm | rain mn cm | humidity % | barometer mb |
| 20260903073453 | 23 | 142 | 0.0 | 0.0 | 0.00 | 0.00 | 0.00 | 82 | 1007.9 |
| 20260903072948 | 23 | 142 | 0.0 | 0.0 | 0.00 | 0.00 | 0.00 | 83 | 1008.0 |
| 20260903072444 | 23 | 142 | 0.0 | 0.0 | 0.00 | 0.00 | 0.00 | 82 | 1008.0 |
| 20260903071941 | 23 | 142 | 0.0 | 0.0 | 0.00 | 0.00 | 0.00 | 82 | 1007.9 |
| 20260903071437 | 23 | 142 | 0.0 | 0.0 | 0.00 | 0.00 | 0.00 | 82 | 1007.7 |
| 20260903070932 | 23 | 142 | 0.0 | 0.0 | 0.00 | 0.00 | 0.00 | 82 | 1007.6 |
| 20260903070431 | 23 | 142 | 0.0 | 0.0 | 0.00 | 0.00 | 0.00 | 82 | 1007.6 |
| 20260903065926 | 23 | 142 | 0.0 | 0.0 | 0.00 | 0.00 | 0.00 | 82 | 1007.4 |
| 20260903065421 | 23 | 142 | 0.0 | 0.0 | 0.00 | 0.00 | 0.00 | 82 | 1007.6 |
| 20260903064920 | 23 | 142 | 0.0 | 0.0 | 0.00 | 0.00 | 0.00 | 82 | 1007.7 |
| 20260903064416 | 23 | 141 | 0.0 | 0.0 | 0.00 | 0.00 | 0.00 | 82 | 1007.9 |
| 20260903063911 | 23 | 141 | 0.0 | 0.0 | 0.00 | 0.00 | 0.00 | 82 | 1007.8 |
| 20260903063406 | 23 | 141 | 0.0 | 0.0 | 0.00 | 0.00 | 0.00 | 82 | 1008.2 |
| 20260903062901 | 23 | 141 | 0.0 | 0.0 | 0.00 | 0.00 | 0.00 | 82 | 1008.3 |
| 20260903062356 | 23 | 141 | 0.0 | 0.0 | 0.00 | 0.00 | 0.00 | 81 | 1008.3 |
| 20260903061853 | 24 | 141 | 0.0 | 0.0 | 0.00 | 0.00 | 0.00 | 80 | 1008.5 |
| 20260903061351 | 24 | 142 | 0.0 | 0.0 | 0.00 | 0.00 | 0.00 | 80 | 1008.4 |
| 20260903060848 | 24 | 142 | 0.0 | 0.0 | 0.00 | 0.00 | 0.00 | 79 | 1008.5 |
| 20260903060347 | 24 | 125 | 0.0 | 1.6 | 0.00 | 0.00 | 0.00 | 78 | 1008.6 |
| 20260903055845 | 25 | 130 | 0.0 | 1.6 | 0.00 | 0.00 | 0.00 | 78 | 1008.4 |
| 20260903055343 | 25 | 121 | 0.0 | 0.0 | 0.00 | 0.00 | 0.00 | 78 | 1008.7 |
| 20260903054838 | 25 | 109 | 1.6 | 1.6 | 0.00 | 0.00 | 0.00 | 77 | 1008.6 |
| 20260903054338 | 25 | 154 | 1.6 | 1.6 | 0.00 | 0.00 | 0.00 | 78 | 1008.8 |
| 20260903053834 | 25 | 55 | 0.0 | 1.6 | 0.00 | 0.00 | 0.00 | 79 | 1008.9 |
| 20260903053330 | 25 | 175 | 3.2 | 3.2 | 0.00 | 0.00 | 0.00 | 79 | 1008.9 |
| 20260903052826 | 25 | 108 | 1.6 | 1.6 | 0.00 | 0.00 | 0.00 | 79 | 1009.1 |
| 20260903052321 | 25 | 132 | 6.4 | 6.4 | 0.00 | 0.00 | 0.00 | 78 | 1009.0 |
| 20260903051817 | 26 | 102 | 3.2 | 4.8 | 0.00 | 0.00 | 0.00 | 77 | 1008.8 |
| 20260903051312 | 28 | 2 | 3.2 | 9.7 | 0.00 | 0.00 | 0.00 | 75 | 1008.7 |
| 20260903050807 | 28 | 155 | 0.0 | 1.6 | 0.00 | 0.00 | 0.00 | 75 | 1007.5 |
| 20260903050306 | 28 | 149 | 1.6 | 3.2 | 0.00 | 0.00 | 0.00 | 76 | 1007.4 |
| 20260903045801 | 28 | 161 | 1.6 | 1.6 | 0.00 | 0.00 | 0.00 | 76 | 1007.3 |
| 20260903045257 | 28 | 153 | 1.6 | 1.6 | 0.00 | 0.00 | 0.00 | 77 | 1007.1 |
| 20260903044753 | 28 | 156 | 0.0 | 1.6 | 0.00 | 0.00 | 0.00 | 76 | 1007.2 |
| 20260903044248 | 28 | 140 | 0.0 | 0.0 | 0.00 | 0.00 | 0.00 | 76 | 1007.2 |
| 20260903043745 | 28 | 243 | 3.2 | 3.2 | 0.00 | 0.00 | 0.00 | 76 | 1006.9 |
| 20260903043244 | 28 | 151 | 0.0 | 0.0 | 0.00 | 0.00 | 0.00 | 76 | 1006.9 |
| 20260903042743 | 28 | 167 | 1.6 | 1.6 | 0.00 | 0.00 | 0.00 | 76 | 1006.9 |
| 20260903042239 | 28 | 147 | 0.0 | 0.0 | 0.00 | 0.00 | 0.00 | 75 | 1006.8 |
| 20260903041735 | 28 | 170 | 4.8 | 6.4 | 0.00 | 0.00 | 0.00 | 75 | 1006.7 |
| 20260903041231 | 28 | 154 | 0.0 | 0.0 | 0.00 | 0.00 | 0.00 | 76 | 1006.6 |
| 20260903040730 | 28 | 158 | 1.6 | 1.6 | 0.00 | 0.00 | 0.00 | 75 | 1006.7 |
| 20260903040225 | 28 | 154 | 0.0 | 0.0 | 0.00 | 0.00 | 0.00 | 76 | 1006.6 |
| 20260903035721 | 28 | 153 | 0.0 | 0.0 | 0.00 | 0.00 | 0.00 | 76 | 1006.7 |
| 20260903035217 | 28 | 187 | 1.6 | 1.6 | 0.00 | 0.00 | 0.00 | 76 | 1006.5 |
| 20260903034717 | 28 | 162 | 1.6 | 1.6 | 0.00 | 0.00 | 0.00 | 76 | 1006.5 |
| 20260903034212 | 28 | 155 | 1.6 | 1.6 | 0.00 | 0.00 | 0.00 | 76 | 1006.3 |
| 20260903033708 | 28 | 152 | 0.0 | 0.0 | 0.00 | 0.00 | 0.00 | 75 | 1006.3 |
| 20260903033207 | 28 | 149 | 0.0 | 0.0 | 0.00 | 0.00 | 0.00 | 75 | 1006.3 |
| 20260903032656 | 28 | 172 | 1.6 | 3.2 | 0.00 | 0.00 | 0.00 | 75 | 1006.2 |
| 20260903032152 | 28 | 142 | 1.6 | 1.6 | 0.00 | 0.00 | 0.00 | 75 | 1006.0 |
| 20260903031648 | 28 | 158 | 0.0 | 1.6 | 0.00 | 0.00 | 0.00 | 74 | 1006.0 |
| 20260903031147 | 28 | 151 | 1.6 | 1.6 | 0.00 | 0.00 | 0.00 | 74 | 1006.0 |
| 20260903030643 | 28 | 153 | 0.0 | 0.0 | 0.00 | 0.00 | 0.00 | 74 | 1005.8 |
| 20260903030138 | 28 | 146 | 0.0 | 1.6 | 0.00 | 0.00 | 0.00 | 74 | 1006.2 |
| 20260903025634 | 28 | 155 | 1.6 | 1.6 | 0.00 | 0.00 | 0.00 | 74 | 1006.3 |
| 20260903025129 | 28 | 165 | 0.0 | 1.6 | 0.00 | 0.00 | 0.00 | 74 | 1006.6 |
| 20260903024624 | 28 | 186 | 1.6 | 1.6 | 0.00 | 0.00 | 0.00 | 73 | 1006.7 |
| 20260903024119 | 28 | 157 | 1.6 | 1.6 | 0.00 | 0.00 | 0.00 | 73 | 1006.9 |
| 20260903023614 | 28 | 164 | 1.6 | 1.6 | 0.00 | 0.00 | 0.00 | 73 | 1006.9 |
| 20260903023115 | 28 | 155 | 1.6 | 3.2 | 0.00 | 0.00 | 0.00 | 73 | 1006.9 |
| 20260903022615 | 28 | 153 | 1.6 | 1.6 | 0.00 | 0.00 | 0.00 | 74 | 1006.9 |
| 20260903022114 | 28 | 152 | 0.0 | 0.0 | 0.00 | 0.00 | 0.00 | 73 | 1007.0 |
| 20260903021608 | 28 | 165 | 1.6 | 1.6 | 0.00 | 0.00 | 0.00 | 72 | 1006.9 |
| 20260903021108 | 28 | 329 | 1.6 | 4.8 | 0.00 | 0.00 | 0.00 | 72 | 1006.7 |
| 20260903020604 | 28 | 154 | 0.0 | 1.6 | 0.00 | 0.00 | 0.00 | 73 | 1007.1 |
| 20260903020104 | 29 | 146 | 1.6 | 1.6 | 0.00 | 0.00 | 0.00 | 72 | 1007.1 |
| 20260903015559 | 29 | 187 | 1.6 | 3.2 | 0.00 | 0.00 | 0.00 | 72 | 1007.1 |
| 20260903015055 | 29 | 139 | 1.6 | 1.6 | 0.00 | 0.00 | 0.00 | 72 | 1007.2 |
| 20260903014554 | 29 | 154 | 0.0 | 0.0 | 0.00 | 0.00 | 0.00 | 72 | 1007.0 |
| 20260903014044 | 29 | 148 | 1.6 | 3.2 | 0.00 | 0.00 | 0.00 | 72 | 1007.0 |
| 20260903013543 | 29 | 146 | 4.8 | 6.4 | 0.00 | 0.00 | 0.00 | 72 | 1007.2 |
| 20260903013038 | 29 | 238 | 3.2 | 4.8 | 0.00 | 0.00 | 0.00 | 72 | 1007.0 |
| 20260903012531 | 29 | 158 | 0.0 | 1.6 | 0.00 | 0.00 | 0.00 | 73 | 1007.3 |
| 20260903012030 | 29 | 153 | 0.0 | 1.6 | 0.00 | 0.00 | 0.00 | 72 | 1007.2 |
| 20260903011525 | 29 | 168 | 0.0 | 1.6 | 0.00 | 0.00 | 0.00 | 72 | 1007.0 |
| 20260903011020 | 30 | 217 | 0.0 | 1.6 | 0.00 | 0.00 | 0.00 | 72 | 1007.0 |
| 20260903010515 | 30 | 239 | 3.2 | 4.8 | 0.00 | 0.00 | 0.00 | 71 | 1007.0 |
| 20260903010013 | 30 | 154 | 1.6 | 1.6 | 0.00 | 0.00 | 0.00 | 72 | 1006.9 |
| 20260903005508 | 30 | 138 | 0.0 | 1.6 | 0.00 | 0.00 | 0.00 | 71 | 1006.9 |
| 20260903005004 | 30 | 151 | 0.0 | 0.0 | 0.00 | 0.00 | 0.00 | 71 | 1007.0 |
| 20260903004503 | 30 | 146 | 0.0 | 0.0 | 0.00 | 0.00 | 0.00 | 71 | 1006.9 |
| 20260903003959 | 30 | 179 | 1.6 | 3.2 | 0.00 | 0.00 | 0.00 | 71 | 1006.9 |
| 20260903003454 | 30 | 236 | 1.6 | 3.2 | 0.00 | 0.00 | 0.00 | 70 | 1006.9 |
| 20260903002949 | 30 | 157 | 0.0 | 0.0 | 0.00 | 0.00 | 0.00 | 69 | 1006.9 |
| 20260903002444 | 30 | 156 | 0.0 | 0.0 | 0.00 | 0.00 | 0.00 | 69 | 1007.0 |
| 20260903001944 | 30 | 154 | 0.0 | 0.0 | 0.00 | 0.00 | 0.00 | 68 | 1006.9 |
| 20260903001438 | 30 | 150 | 0.0 | 0.0 | 0.00 | 0.00 | 0.00 | 68 | 1006.8 |
| 20260903000937 | 30 | 175 | 1.6 | 3.2 | 0.00 | 0.00 | 0.00 | 68 | 1006.8 |
| 20260903000433 | 31 | 154 | 0.0 | 0.0 | 0.00 | 0.00 | 0.00 | 67 | 1006.7 |
| 20260902235931 | 31 | 186 | 1.6 | 1.6 | 0.00 | 0.00 | 0.00 | 66 | 1006.9 |
| 20260902235426 | 31 | 155 | 0.0 | 1.6 | 0.00 | 0.00 | 0.00 | 67 | 1006.9 |
| 20260902234921 | 31 | 160 | 0.0 | 1.6 | 0.00 | 0.00 | 0.00 | 65 | 1006.8 |
| 20260902234415 | 31 | 205 | 1.6 | 3.2 | 0.00 | 0.00 | 0.00 | 65 | 1006.9 |
| 20260902233915 | 31 | 159 | 1.6 | 1.6 | 0.00 | 0.00 | 0.00 | 65 | 1006.7 |
| 20260902233409 | 31 | 176 | 0.0 | 0.0 | 0.00 | 0.00 | 0.00 | 65 | 1006.8 |
| 20260902232908 | 31 | 153 | 0.0 | 0.0 | 0.00 | 0.00 | 0.00 | 65 | 1006.8 |
| 20260902232403 | 31 | 221 | 3.2 | 4.8 | 0.00 | 0.00 | 0.00 | 64 | 1006.9 |
| 20260902231902 | 32 | 176 | 0.0 | 1.6 | 0.00 | 0.00 | 0.00 | 64 | 1007.2 |
| 20260902231357 | 32 | 169 | 1.6 | 3.2 | 0.00 | 0.00 | 0.00 | 63 | 1006.6 |
| 20260902230847 | 32 | 153 | 3.2 | 3.2 | 0.00 | 0.00 | 0.00 | 63 | 1006.7 |
| 20260902230346 | 32 | 187 | 1.6 | 1.6 | 0.00 | 0.00 | 0.00 | 62 | 1006.9 |
| 20260902225845 | 32 | 151 | 1.6 | 3.2 | 0.00 | 0.00 | 0.00 | 63 | 1006.8 |
| 20260902225341 | 32 | 150 | 1.6 | 1.6 | 0.00 | 0.00 | 0.00 | 62 | 1006.5 |
| 20260902224839 | 32 | 156 | 0.0 | 0.0 | 0.00 | 0.00 | 0.00 | 63 | 1006.7 |
| 20260902224334 | 32 | 154 | 1.6 | 1.6 | 0.00 | 0.00 | 0.00 | 62 | 1006.6 |
| 20260902223832 | 32 | 169 | 3.2 | 4.8 | 0.00 | 0.00 | 0.00 | 62 | 1006.7 |
| 20260902223331 | 32 | 150 | 3.2 | 3.2 | 0.00 | 0.00 | 0.00 | 61 | 1006.8 |
| 20260902222825 | 32 | 150 | 3.2 | 3.2 | 0.00 | 0.00 | 0.00 | 61 | 1006.8 |
| 20260902222324 | 32 | 157 | 1.6 | 1.6 | 0.00 | 0.00 | 0.00 | 61 | 1006.6 |
| 20260902221819 | 32 | 149 | 1.6 | 1.6 | 0.00 | 0.00 | 0.00 | 61 | 1006.8 |
| 20260902221318 | 32 | 155 | 1.6 | 3.2 | 0.00 | 0.00 | 0.00 | 61 | 1006.6 |
| 20260902220814 | 32 | 140 | 1.6 | 1.6 | 0.00 | 0.00 | 0.00 | 61 | 1006.7 |
| 20260902220313 | 32 | 145 | 4.8 | 4.8 | 0.00 | 0.00 | 0.00 | 60 | 1006.7 |
| 20260902215808 | 33 | 162 | 1.6 | 3.2 | 0.00 | 0.00 | 0.00 | 60 | 1006.6 |
| 20260902215306 | 33 | 166 | 3.2 | 3.2 | 0.00 | 0.00 | 0.00 | 61 | 1006.9 |
| 20260902214800 | 33 | 187 | 3.2 | 3.2 | 0.00 | 0.00 | 0.00 | 59 | 1006.9 |
| 20260902214258 | 33 | 192 | 3.2 | 3.2 | 0.00 | 0.00 | 0.00 | 60 | 1006.9 |
| 20260902213754 | 33 | 154 | 3.2 | 3.2 | 0.00 | 0.00 | 0.00 | 60 | 1006.8 |
| 20260902213249 | 33 | 159 | 3.2 | 3.2 | 0.00 | 0.00 | 0.00 | 60 | 1007.0 |
| 20260902212747 | 33 | 198 | 3.2 | 3.2 | 0.00 | 0.00 | 0.00 | 58 | 1006.8 |
| 20260902212244 | 33 | 248 | 1.6 | 3.2 | 0.00 | 0.00 | 0.00 | 60 | 1006.9 |
| 20260902211740 | 33 | 150 | 3.2 | 4.8 | 0.00 | 0.00 | 0.00 | 59 | 1007.0 |
| 20260902211236 | 33 | 159 | 0.0 | 1.6 | 0.00 | 0.00 | 0.00 | 59 | 1007.0 |
| 20260902210730 | 33 | 157 | 3.2 | 3.2 | 0.00 | 0.00 | 0.00 | 58 | 1007.1 |
| 20260902210225 | 33 | 154 | 3.2 | 3.2 | 0.00 | 0.00 | 0.00 | 58 | 1007.1 |
| 20260902205723 | 33 | 144 | 1.6 | 3.2 | 0.00 | 0.00 | 0.00 | 58 | 1007.2 |
| 20260902205219 | 34 | 154 | 3.2 | 3.2 | 0.00 | 0.00 | 0.00 | 56 | 1007.2 |
| 20260902204714 | 35 | 148 | 1.6 | 1.6 | 0.00 | 0.00 | 0.00 | 57 | 1007.2 |
| 20260902204209 | 35 | 135 | 1.6 | 1.6 | 0.00 | 0.00 | 0.00 | 55 | 1007.4 |
| 20260902203703 | 35 | 160 | 1.6 | 3.2 | 0.00 | 0.00 | 0.00 | 56 | 1007.5 |
| 20260902203158 | 35 | 98 | 1.6 | 3.2 | 0.00 | 0.00 | 0.00 | 53 | 1007.5 |
| 20260902202653 | 35 | 151 | 1.6 | 1.6 | 0.00 | 0.00 | 0.00 | 52 | 1007.4 |
| 20260902202150 | 35 | 150 | 1.6 | 1.6 | 0.00 | 0.00 | 0.00 | 53 | 1007.4 |
| 20260902201646 | 35 | 187 | 3.2 | 3.2 | 0.00 | 0.00 | 0.00 | 54 | 1007.5 |
| 20260902201144 | 35 | 175 | 3.2 | 3.2 | 0.00 | 0.00 | 0.00 | 56 | 1007.6 |
| 20260902200639 | 35 | 157 | 1.6 | 1.6 | 0.00 | 0.00 | 0.00 | 56 | 1007.8 |
| 20260902200136 | 35 | 174 | 3.2 | 3.2 | 0.00 | 0.00 | 0.00 | 57 | 1007.8 |
| 20260902195631 | 35 | 148 | 1.6 | 1.6 | 0.00 | 0.00 | 0.00 | 57 | 1007.7 |
| 20260902195130 | 36 | 207 | 3.2 | 4.8 | 0.00 | 0.00 | 0.00 | 55 | 1007.8 |
| 20260902194629 | 35 | 156 | 1.6 | 1.6 | 0.00 | 0.00 | 0.00 | 56 | 1007.6 |
| 20260902194124 | 35 | 156 | 3.2 | 3.2 | 0.00 | 0.00 | 0.00 | 55 | 1007.8 |
| 20260902193621 | 35 | 48 | 0.0 | 1.6 | 0.00 | 0.00 | 0.00 | 56 | 1007.9 |
| 20260902193120 | 35 | 170 | 1.6 | 1.6 | 0.00 | 0.00 | 0.00 | 56 | 1008.0 |
| 20260902192619 | 35 | 192 | 4.8 | 6.4 | 0.00 | 0.00 | 0.00 | 54 | 1008.1 |
| 20260902192118 | 35 | 169 | 1.6 | 1.6 | 0.00 | 0.00 | 0.00 | 58 | 1008.1 |
| 20260902191613 | 36 | 161 | 0.0 | 1.6 | 0.00 | 0.00 | 0.00 | 57 | 1007.8 |
| 20260902191107 | 35 | 148 | 3.2 | 3.2 | 0.00 | 0.00 | 0.00 | 57 | 1008.0 |
| 20260902190603 | 35 | 245 | 3.2 | 3.2 | 0.00 | 0.00 | 0.00 | 57 | 1008.3 |
| 20260902190058 | 35 | 193 | 4.8 | 6.4 | 0.00 | 0.00 | 0.00 | 58 | 1008.0 |
| 20260902185554 | 35 | 156 | 3.2 | 3.2 | 0.00 | 0.00 | 0.00 | 58 | 1008.3 |
| 20260902185050 | 35 | 272 | 3.2 | 4.8 | 0.00 | 0.00 | 0.00 | 57 | 1008.1 |
| 20260902184545 | 34 | 164 | 1.6 | 1.6 | 0.00 | 0.00 | 0.00 | 58 | 1008.1 |
| 20260902184040 | 34 | 260 | 4.8 | 6.4 | 0.00 | 0.00 | 0.00 | 58 | 1008.3 |
| 20260902183537 | 34 | 263 | 4.8 | 6.4 | 0.00 | 0.00 | 0.00 | 58 | 1008.3 |
| 20260902183033 | 33 | 145 | 1.6 | 1.6 | 0.00 | 0.00 | 0.00 | 60 | 1008.4 |
| 20260902182528 | 33 | 189 | 3.2 | 4.8 | 0.00 | 0.00 | 0.00 | 59 | 1008.6 |
| 20260902182024 | 33 | 213 | 3.2 | 4.8 | 0.00 | 0.00 | 0.00 | 59 | 1008.7 |
| 20260902181520 | 33 | 153 | 0.0 | 1.6 | 0.00 | 0.00 | 0.00 | 60 | 1008.8 |
| 20260902181014 | 33 | 196 | 1.6 | 3.2 | 0.00 | 0.00 | 0.00 | 61 | 1008.7 |
| 20260902180509 | 33 | 155 | 1.6 | 1.6 | 0.00 | 0.00 | 0.00 | 59 | 1008.7 |
| 20260902180007 | 33 | 146 | 4.8 | 6.4 | 0.00 | 0.00 | 0.00 | 61 | 1008.7 |
| 20260902175505 | 33 | 155 | 0.0 | 0.0 | 0.00 | 0.00 | 0.00 | 61 | 1008.7 |
| 20260902175001 | 33 | 145 | 1.6 | 1.6 | 0.00 | 0.00 | 0.00 | 60 | 1008.9 |
| 20260902174457 | 33 | 98 | 3.2 | 3.2 | 0.00 | 0.00 | 0.00 | 60 | 1009.1 |
| 20260902173952 | 33 | 165 | 1.6 | 1.6 | 0.00 | 0.00 | 0.00 | 62 | 1008.9 |
| 20260902173452 | 32 | 173 | 1.6 | 1.6 | 0.00 | 0.00 | 0.00 | 65 | 1008.9 |
| 20260902172947 | 33 | 152 | 1.6 | 1.6 | 0.00 | 0.00 | 0.00 | 62 | 1009.1 |
| 20260902172446 | 32 | 153 | 0.0 | 0.0 | 0.00 | 0.00 | 0.00 | 66 | 1009.2 |
| 20260902171941 | 32 | 150 | 0.0 | 0.0 | 0.00 | 0.00 | 0.00 | 62 | 1009.2 |
| 20260902171437 | 32 | 151 | 3.2 | 3.2 | 0.00 | 0.00 | 0.00 | 63 | 1009.5 |
| 20260902170933 | 32 | 157 | 0.0 | 1.6 | 0.00 | 0.00 | 0.00 | 62 | 1009.7 |
| 20260902170428 | 32 | 166 | 1.6 | 1.6 | 0.00 | 0.00 | 0.00 | 63 | 1009.6 |
| 20260902165923 | 32 | 161 | 0.0 | 0.0 | 0.00 | 0.00 | 0.00 | 62 | 1009.7 |
| 20260902165423 | 32 | 151 | 0.0 | 1.6 | 0.00 | 0.00 | 0.00 | 63 | 1009.5 |
| 20260902164917 | 31 | 150 | 0.0 | 0.0 | 0.00 | 0.00 | 0.00 | 63 | 1009.6 |
| 20260902164412 | 31 | 152 | 0.0 | 1.6 | 0.00 | 0.00 | 0.00 | 63 | 1009.6 |
| 20260902163911 | 31 | 151 | 1.6 | 1.6 | 0.00 | 0.00 | 0.00 | 63 | 1009.7 |
| 20260902163407 | 32 | 149 | 1.6 | 1.6 | 0.00 | 0.00 | 0.00 | 63 | 1009.7 |
| 20260902162904 | 32 | 158 | 1.6 | 1.6 | 0.00 | 0.00 | 0.00 | 64 | 1009.6 |
| 20260902162400 | 31 | 156 | 0.0 | 1.6 | 0.00 | 0.00 | 0.00 | 63 | 1009.5 |
| 20260902161859 | 31 | 145 | 0.0 | 0.0 | 0.00 | 0.00 | 0.00 | 65 | 1009.7 |
| 20260902161355 | 31 | 153 | 0.0 | 0.0 | 0.00 | 0.00 | 0.00 | 64 | 1009.7 |
| 20260902160851 | 31 | 149 | 0.0 | 1.6 | 0.00 | 0.00 | 0.00 | 63 | 1009.7 |
| 20260902160346 | 31 | 151 | 0.0 | 0.0 | 0.00 | 0.00 | 0.00 | 67 | 1009.6 |
| 20260902155844 | 31 | 148 | 0.0 | 0.0 | 0.00 | 0.00 | 0.00 | 64 | 1009.5 |
| 20260902155343 | 31 | 3 | 1.6 | 3.2 | 0.00 | 0.00 | 0.00 | 64 | 1009.7 |
| 20260902154838 | 31 | 150 | 0.0 | 0.0 | 0.00 | 0.00 | 0.00 | 66 | 1009.7 |
| 20260902154334 | 31 | 170 | 0.0 | 0.0 | 0.00 | 0.00 | 0.00 | 67 | 1009.9 |
| 20260902153833 | 31 | 150 | 0.0 | 1.6 | 0.00 | 0.00 | 0.00 | 68 | 1009.6 |
| 20260902153332 | 31 | 158 | 0.0 | 1.6 | 0.00 | 0.00 | 0.00 | 71 | 1009.8 |
| 20260902152828 | 30 | 154 | 1.6 | 1.6 | 0.00 | 0.00 | 0.00 | 70 | 1009.8 |
| 20260902152324 | 30 | 145 | 1.6 | 1.6 | 0.00 | 0.00 | 0.00 | 68 | 1009.6 |
| 20260902151819 | 30 | 146 | 0.0 | 0.0 | 0.00 | 0.00 | 0.00 | 71 | 1009.8 |
| 20260902151314 | 30 | 156 | 0.0 | 0.0 | 0.00 | 0.00 | 0.00 | 71 | 1009.7 |
| 20260902150809 | 30 | 137 | 1.6 | 1.6 | 0.00 | 0.00 | 0.00 | 70 | 1009.8 |
| 20260902150305 | 30 | 153 | 0.0 | 1.6 | 0.00 | 0.00 | 0.00 | 71 | 1009.7 |
| 20260902145804 | 30 | 149 | 1.6 | 1.6 | 0.00 | 0.00 | 0.00 | 70 | 1009.9 |
| 20260902145300 | 30 | 162 | 0.0 | 0.0 | 0.00 | 0.00 | 0.00 | 71 | 1009.9 |
| 20260902144755 | 30 | 152 | 0.0 | 0.0 | 0.00 | 0.00 | 0.00 | 71 | 1009.7 |
| 20260902144251 | 30 | 145 | 0.0 | 0.0 | 0.00 | 0.00 | 0.00 | 72 | 1009.7 |
| 20260902143746 | 29 | 148 | 0.0 | 1.6 | 0.00 | 0.00 | 0.00 | 74 | 1009.9 |
| 20260902143241 | 29 | 150 | 3.2 | 3.2 | 0.00 | 0.00 | 0.00 | 73 | 1009.8 |
| 20260902142736 | 29 | 164 | 1.6 | 1.6 | 0.00 | 0.00 | 0.00 | 74 | 1009.7 |
| 20260902142233 | 28 | 169 | 0.0 | 0.0 | 0.00 | 0.00 | 0.00 | 75 | 1009.6 |
| 20260902141732 | 28 | 193 | 3.2 | 4.8 | 0.00 | 0.00 | 0.00 | 75 | 1009.6 |
| 20260902141228 | 28 | 196 | 0.0 | 1.6 | 0.00 | 0.00 | 0.00 | 76 | 1009.7 |
| 20260902140723 | 28 | 152 | 0.0 | 1.6 | 0.00 | 0.00 | 0.00 | 77 | 1009.6 |
| 20260902140218 | 28 | 144 | 0.0 | 0.0 | 0.00 | 0.00 | 0.00 | 77 | 1009.5 |
| 20260902135717 | 28 | 149 | 0.0 | 0.0 | 0.00 | 0.00 | 0.00 | 77 | 1009.6 |
| 20260902135213 | 28 | 124 | 0.0 | 0.0 | 0.00 | 0.00 | 0.00 | 77 | 1009.5 |
| 20260902134712 | 28 | 140 | 0.0 | 0.0 | 0.00 | 0.00 | 0.00 | 78 | 1009.6 |
| 20260902134209 | 28 | 245 | 0.0 | 1.6 | 0.00 | 0.00 | 0.00 | 78 | 1009.3 |
| 20260902133709 | 28 | 135 | 0.0 | 1.6 | 0.00 | 0.00 | 0.00 | 78 | 1009.4 |
| 20260902133208 | 28 | 150 | 1.6 | 3.2 | 0.00 | 0.00 | 0.00 | 78 | 1009.4 |
| 20260902132703 | 27 | 152 | 1.6 | 1.6 | 0.00 | 0.00 | 0.00 | 79 | 1009.4 |
| 20260902132159 | 27 | 149 | 0.0 | 1.6 | 0.00 | 0.00 | 0.00 | 79 | 1009.1 |
| 20260902131654 | 27 | 113 | 0.0 | 0.0 | 0.00 | 0.00 | 0.00 | 80 | 1009.3 |
| 20260902131150 | 27 | 179 | 1.6 | 3.2 | 0.00 | 0.00 | 0.00 | 80 | 1009.3 |
| 20260902130645 | 27 | 167 | 1.6 | 3.2 | 0.00 | 0.00 | 0.00 | 81 | 1009.2 |
| 20260902130141 | 27 | 197 | 1.6 | 1.6 | 0.00 | 0.00 | 0.00 | 82 | 1009.1 |
| 20260902125636 | 27 | 149 | 0.0 | 0.0 | 0.00 | 0.00 | 0.00 | 82 | 1009.2 |
| 20260902125131 | 27 | 149 | 0.0 | 1.6 | 0.00 | 0.00 | 0.00 | 82 | 1009.2 |
| 20260902124628 | 26 | 194 | 3.2 | 4.8 | 0.00 | 0.00 | 0.00 | 83 | 1009.1 |
| 20260902124128 | 26 | 112 | 0.0 | 1.6 | 0.00 | 0.00 | 0.00 | 83 | 1009.3 |
| 20260902123624 | 26 | 156 | 0.0 | 1.6 | 0.00 | 0.00 | 0.00 | 84 | 1009.3 |
| 20260902123119 | 26 | 155 | 0.0 | 0.0 | 0.00 | 0.00 | 0.00 | 84 | 1009.1 |
| 20260902122618 | 26 | 167 | 0.0 | 0.0 | 0.00 | 0.00 | 0.00 | 84 | 1009.2 |
| 20260902122114 | 26 | 162 | 1.6 | 1.6 | 0.00 | 0.00 | 0.00 | 84 | 1009.2 |
| 20260902121614 | 26 | 151 | 0.0 | 0.0 | 0.00 | 0.00 | 0.00 | 85 | 1009.4 |
| 20260902121109 | 26 | 202 | 3.2 | 4.8 | 0.00 | 0.00 | 0.00 | 85 | 1009.3 |
| 20260902120605 | 25 | 164 | 1.6 | 1.6 | 0.00 | 0.00 | 0.00 | 86 | 1009.2 |
| 20260902120101 | 25 | 158 | 0.0 | 1.6 | 0.00 | 0.00 | 0.00 | 87 | 1009.1 |
| 20260902115556 | 25 | 149 | 0.0 | 1.6 | 0.00 | 0.00 | 0.00 | 88 | 1009.3 |
| 20260902115052 | 25 | 152 | 0.0 | 0.0 | 0.00 | 0.00 | 0.00 | 88 | 1009.2 |
| 20260902114548 | 25 | 158 | 0.0 | 1.6 | 0.00 | 0.00 | 0.00 | 88 | 1009.3 |
| 20260902114048 | 25 | 148 | 0.0 | 1.6 | 0.00 | 0.00 | 0.00 | 88 | 1009.3 |
| 20260902113543 | 25 | 159 | 0.0 | 1.6 | 0.00 | 0.00 | 0.00 | 88 | 1009.2 |
| 20260902113038 | 25 | 154 | 0.0 | 0.0 | 0.00 | 0.00 | 0.00 | 88 | 1009.0 |
| 20260902112534 | 25 | 154 | 0.0 | 0.0 | 0.00 | 0.00 | 0.00 | 88 | 1009.1 |
| 20260902112030 | 25 | 152 | 0.0 | 1.6 | 0.00 | 0.00 | 0.00 | 88 | 1008.9 |
| 20260902111526 | 25 | 143 | 0.0 | 0.0 | 0.00 | 0.00 | 0.00 | 89 | 1008.8 |
| 20260902111022 | 25 | 153 | 0.0 | 0.0 | 0.00 | 0.00 | 0.00 | 89 | 1008.7 |
| 20260902110518 | 25 | 156 | 0.0 | 0.0 | 0.00 | 0.00 | 0.00 | 89 | 1008.7 |
| 20260902110013 | 25 | 158 | 0.0 | 0.0 | 0.00 | 0.00 | 0.00 | 89 | 1008.6 |
| 20260902105508 | 25 | 156 | 0.0 | 0.0 | 0.00 | 0.00 | 0.00 | 89 | 1008.7 |
| 20260902105008 | 25 | 164 | 4.8 | 6.4 | 0.00 | 0.00 | 0.00 | 89 | 1008.6 |
| 20260902104503 | 25 | 156 | 0.0 | 0.0 | 0.00 | 0.00 | 0.00 | 89 | 1008.7 |
| 20260902103958 | 25 | 158 | 0.0 | 0.0 | 0.00 | 0.00 | 0.00 | 88 | 1008.5 |
| 20260902103454 | 25 | 147 | 0.0 | 0.0 | 0.00 | 0.00 | 0.00 | 88 | 1008.6 |
| 20260902102948 | 25 | 159 | 1.6 | 1.6 | 0.00 | 0.00 | 0.00 | 89 | 1008.5 |
| 20260902102445 | 25 | 160 | 0.0 | 0.0 | 0.00 | 0.00 | 0.00 | 89 | 1008.5 |
| 20260902101941 | 25 | 156 | 0.0 | 0.0 | 0.00 | 0.00 | 0.00 | 89 | 1008.5 |
| 20260902101436 | 25 | 151 | 0.0 | 1.6 | 0.00 | 0.00 | 0.00 | 89 | 1008.4 |
| 20260902100935 | 25 | 154 | 0.0 | 0.0 | 0.00 | 0.00 | 0.00 | 89 | 1008.6 |
| 20260902100436 | 25 | 161 | 0.0 | 0.0 | 0.00 | 0.00 | 0.00 | 90 | 1008.6 |
| 20260902095935 | 25 | 158 | 0.0 | 0.0 | 0.00 | 0.00 | 0.00 | 90 | 1008.8 |
| 20260902095430 | 25 | 151 | 0.0 | 0.0 | 0.00 | 0.00 | 0.00 | 90 | 1008.6 |
| 20260902094929 | 25 | 151 | 0.0 | 0.0 | 0.00 | 0.00 | 0.00 | 90 | 1008.7 |
| 20260902094425 | 25 | 154 | 0.0 | 0.0 | 0.00 | 0.00 | 0.00 | 90 | 1008.6 |
| 20260902093920 | 25 | 152 | 0.0 | 0.0 | 0.00 | 0.00 | 0.00 | 90 | 1008.6 |
| 20260902093415 | 25 | 151 | 0.0 | 0.0 | 0.00 | 0.00 | 0.00 | 91 | 1008.7 |
| 20260902092914 | 25 | 158 | 0.0 | 1.6 | 0.00 | 0.00 | 0.00 | 91 | 1008.7 |
| 20260902092410 | 25 | 148 | 0.0 | 0.0 | 0.00 | 0.00 | 0.00 | 91 | 1008.7 |
| 20260902091910 | 24 | 149 | 0.0 | 0.0 | 0.00 | 0.00 | 0.00 | 91 | 1008.8 |
| 20260902091406 | 24 | 152 | 0.0 | 0.0 | 0.00 | 0.00 | 0.00 | 91 | 1008.8 |
| 20260902090902 | 24 | 154 | 0.0 | 0.0 | 0.00 | 0.00 | 0.00 | 92 | 1008.8 |
| 20260902090402 | 24 | 145 | 0.0 | 0.0 | 0.00 | 0.00 | 0.00 | 91 | 1008.8 |
| 20260902085901 | 24 | 166 | 0.0 | 1.6 | 0.00 | 0.00 | 0.00 | 92 | 1008.8 |
| 20260902085356 | 24 | 153 | 0.0 | 0.0 | 0.00 | 0.00 | 0.00 | 92 | 1008.7 |
| 20260902084852 | 24 | 148 | 0.0 | 0.0 | 0.00 | 0.00 | 0.00 | 92 | 1009.0 |
| 20260902084348 | 25 | 148 | 0.0 | 0.0 | 0.00 | 0.00 | 0.00 | 92 | 1008.8 |
| 20260902083843 | 25 | 144 | 0.0 | 0.0 | 0.00 | 0.00 | 0.00 | 92 | 1009.0 |
| 20260902083343 | 25 | 144 | 0.0 | 0.0 | 0.00 | 0.00 | 0.00 | 91 | 1008.7 |
| 20260902082838 | 25 | 148 | 0.0 | 0.0 | 0.00 | 0.00 | 0.00 | 91 | 1008.8 |
| 20260902082334 | 25 | 147 | 0.0 | 0.0 | 0.00 | 0.00 | 0.00 | 91 | 1009.0 |
| 20260902081831 | 25 | 144 | 0.0 | 0.0 | 0.00 | 0.00 | 0.00 | 91 | 1008.8 |
| 20260902081326 | 25 | 147 | 0.0 | 0.0 | 0.00 | 0.00 | 0.00 | 91 | 1008.8 |
| 20260902080820 | 25 | 147 | 0.0 | 0.0 | 0.00 | 0.00 | 0.00 | 91 | 1008.7 |
| 20260902080317 | 25 | 149 | 0.0 | 0.0 | 0.00 | 0.00 | 0.00 | 92 | 1008.7 |
| 20260902075816 | 25 | 141 | 0.0 | 0.0 | 0.00 | 0.00 | 0.00 | 92 | 1008.8 |
| 20260902075313 | 25 | 141 | 0.0 | 0.0 | 0.00 | 0.00 | 0.00 | 91 | 1008.6 |
| 20260902074808 | 25 | 148 | 0.0 | 0.0 | 0.00 | 0.00 | 0.00 | 91 | 1008.5 |
| 20260902074304 | 25 | 148 | 0.0 | 0.0 | 0.00 | 0.00 | 0.00 | 92 | 1008.6 |
| 20260902073804 | 24 | 151 | 0.0 | 0.0 | 0.00 | 0.00 | 0.00 | 92 | 1008.6 |